createdAt,value
2018-07-20T00:00:30.699Z,22.63
2018-07-20T00:01:30.726Z,22.61
2018-07-20T00:02:51.767Z,22.64
2018-07-20T00:03:30.773Z,22.56
2018-07-20T00:04:30.798Z,22.67
2018-07-20T00:05:30.823Z,22.64
2018-07-20T00:06:30.846Z,22.54
2018-07-20T00:07:30.870Z,22.59
2018-07-20T00:08:51.914Z,22.57
2018-07-20T00:09:30.924Z,22.56
2018-07-20T00:10:30.945Z,22.61
2018-07-20T00:11:30.975Z,22.61
2018-07-20T00:12:30.992Z,22.49
2018-07-20T00:13:31.018Z,22.57
2018-07-20T00:14:52.059Z,22.54
2018-07-20T00:15:31.065Z,22.52
2018-07-20T00:16:31.094Z,22.48
2018-07-20T00:17:31.117Z,22.56
2018-07-20T00:18:31.141Z,22.60
2018-07-20T00:19:31.165Z,22.54
2018-07-20T00:20:52.208Z,22.57
2018-07-20T00:21:31.216Z,22.54
2018-07-20T00:22:31.239Z,22.57
2018-07-20T00:23:31.263Z,22.57
2018-07-20T00:24:31.300Z,22.56
2018-07-20T00:25:31.310Z,22.57
2018-07-20T00:26:52.353Z,22.56
2018-07-20T00:27:31.359Z,22.59
2018-07-20T00:28:31.383Z,22.61
2018-07-20T00:29:31.409Z,22.60
2018-07-20T00:30:31.435Z,22.61
2018-07-20T00:31:31.458Z,22.60
2018-07-20T00:32:52.496Z,22.57
2018-07-20T00:33:31.505Z,22.61
2018-07-20T00:34:31.529Z,22.56
2018-07-20T00:35:31.551Z,22.56
2018-07-20T00:36:31.577Z,22.52
2018-07-20T00:37:31.602Z,22.59
2018-07-20T00:38:52.643Z,22.60
2018-07-20T00:39:31.651Z,22.59
2018-07-20T00:40:31.677Z,22.54
2018-07-20T00:41:31.702Z,22.60
2018-07-20T00:42:31.726Z,22.60
2018-07-20T00:43:31.751Z,22.59
2018-07-20T00:44:52.788Z,22.54
2018-07-20T00:45:31.796Z,22.52
2018-07-20T00:46:31.821Z,22.46
2018-07-20T00:47:31.844Z,22.59
2018-07-20T00:48:31.871Z,22.59
2018-07-20T00:49:31.898Z,22.56
2018-07-20T00:50:52.938Z,22.52
2018-07-20T00:51:31.951Z,22.49
2018-07-20T00:52:31.968Z,22.45
2018-07-20T00:53:31.993Z,22.54
2018-07-20T00:54:32.023Z,22.54
2018-07-20T00:55:32.040Z,22.42
2018-07-20T00:56:53.081Z,22.45
2018-07-20T00:57:32.090Z,22.51
2018-07-20T00:58:32.119Z,22.48
2018-07-20T00:59:32.138Z,22.52
2018-07-20T01:00:32.163Z,22.46
2018-07-20T01:01:32.191Z,22.57
2018-07-20T01:02:53.234Z,22.57
2018-07-20T01:03:32.236Z,22.49
2018-07-20T01:04:32.266Z,22.42
2018-07-20T01:05:32.308Z,22.57
2018-07-20T01:06:32.308Z,22.49
2018-07-20T01:07:32.341Z,22.45
2018-07-20T01:08:53.375Z,22.46
2018-07-20T01:09:32.385Z,22.44
2018-07-20T01:10:32.408Z,22.45
2018-07-20T01:11:32.430Z,22.45
2018-07-20T01:12:32.453Z,22.42
2018-07-20T01:13:32.479Z,22.46
2018-07-20T01:14:53.522Z,22.48
2018-07-20T01:15:32.530Z,22.42
2018-07-20T01:16:32.562Z,22.46
2018-07-20T01:17:32.580Z,22.49
2018-07-20T01:18:32.601Z,22.46
2018-07-20T01:19:32.628Z,22.52
2018-07-20T01:20:53.668Z,22.56
2018-07-20T01:21:32.671Z,22.45
2018-07-20T01:22:32.699Z,22.45
2018-07-20T01:23:32.721Z,22.42
2018-07-20T01:24:32.744Z,22.42
2018-07-20T01:25:32.769Z,22.42
2018-07-20T01:26:53.810Z,22.44
2018-07-20T01:27:32.816Z,22.44
2018-07-20T01:28:32.843Z,22.49
2018-07-20T01:29:32.867Z,22.41
2018-07-20T01:30:32.894Z,22.46
2018-07-20T01:31:32.915Z,22.46
2018-07-20T01:32:53.955Z,22.46
2018-07-20T01:33:32.964Z,22.42
2018-07-20T01:34:32.986Z,22.45
2018-07-20T01:35:33.011Z,22.44
2018-07-20T01:36:33.039Z,22.46
2018-07-20T01:37:33.061Z,22.39
2018-07-20T01:38:54.102Z,22.42
2018-07-20T01:39:33.110Z,22.42
2018-07-20T01:40:33.135Z,22.42
2018-07-20T01:41:33.159Z,22.45
2018-07-20T01:42:33.183Z,22.44
2018-07-20T01:43:33.207Z,22.48
2018-07-20T01:44:54.246Z,22.45
2018-07-20T01:45:33.255Z,22.39
2018-07-20T01:46:33.279Z,22.45
2018-07-20T01:47:33.303Z,22.31
2018-07-20T01:48:33.329Z,22.39
2018-07-20T01:49:33.353Z,22.48
2018-07-20T01:50:54.393Z,22.41
2018-07-20T01:51:33.403Z,22.49
2018-07-20T01:52:33.423Z,22.49
2018-07-20T01:53:33.452Z,22.51
2018-07-20T01:54:33.472Z,22.45
2018-07-20T01:55:33.496Z,22.42
2018-07-20T01:56:54.535Z,22.36
2018-07-20T01:57:33.545Z,22.38
2018-07-20T01:58:33.571Z,22.42
2018-07-20T01:59:33.594Z,22.38
2018-07-20T02:00:33.619Z,22.45
2018-07-20T02:01:33.643Z,22.39
2018-07-20T02:02:54.688Z,22.42
2018-07-20T02:03:33.691Z,22.41
2018-07-20T02:04:33.714Z,22.44
2018-07-20T02:05:33.738Z,22.42
2018-07-20T02:06:33.763Z,22.44
2018-07-20T02:07:33.787Z,22.38
2018-07-20T02:08:54.830Z,22.36
2018-07-20T02:09:33.838Z,22.39
2018-07-20T02:10:33.863Z,22.45
2018-07-20T02:11:33.885Z,22.36
2018-07-20T02:12:33.908Z,22.48
2018-07-20T02:13:33.938Z,22.42
2018-07-20T02:14:54.974Z,22.48
2018-07-20T02:15:33.981Z,22.39
2018-07-20T02:16:34.007Z,22.39
2018-07-20T02:17:34.032Z,22.30
2018-07-20T02:18:34.055Z,22.36
2018-07-20T02:19:34.079Z,22.42
2018-07-20T02:20:55.119Z,22.35
2018-07-20T02:21:34.215Z,22.33
2018-07-20T02:22:34.152Z,22.30
2018-07-20T02:23:34.175Z,22.33
2018-07-20T02:24:34.202Z,22.30
2018-07-20T02:25:34.225Z,22.31
2018-07-20T02:26:55.267Z,22.36
2018-07-20T02:27:34.276Z,22.36
2018-07-20T02:28:34.298Z,22.41
2018-07-20T02:29:34.355Z,22.30
2018-07-20T02:30:34.346Z,22.36
2018-07-20T02:31:34.371Z,22.36
2018-07-20T02:32:55.409Z,22.30
2018-07-20T02:33:34.419Z,22.29
2018-07-20T02:34:34.452Z,22.31
2018-07-20T02:35:34.468Z,22.39
2018-07-20T02:36:34.491Z,22.30
2018-07-20T02:37:34.516Z,22.30
2018-07-20T02:38:55.557Z,22.30
2018-07-20T02:39:34.563Z,22.38
2018-07-20T02:40:34.587Z,22.35
2018-07-20T02:41:34.614Z,22.31
2018-07-20T02:42:34.637Z,22.36
2018-07-20T02:43:34.658Z,22.23
2018-07-20T02:44:55.699Z,22.38
2018-07-20T02:45:34.707Z,22.27
2018-07-20T02:46:34.732Z,22.33
2018-07-20T02:47:34.754Z,22.41
2018-07-20T02:48:34.781Z,22.36
2018-07-20T02:49:34.807Z,22.33
2018-07-20T02:50:55.847Z,22.31
2018-07-20T02:51:34.854Z,22.24
2018-07-20T02:52:34.876Z,22.29
2018-07-20T02:53:34.903Z,22.39
2018-07-20T02:54:34.925Z,22.39
2018-07-20T02:55:34.948Z,22.23
2018-07-20T02:56:55.991Z,22.38
2018-07-20T02:57:34.998Z,22.30
2018-07-20T02:58:35.022Z,22.21
2018-07-20T02:59:35.049Z,22.33
2018-07-20T03:00:35.073Z,22.31
2018-07-20T03:01:35.099Z,22.27
2018-07-20T03:02:56.137Z,22.24
2018-07-20T03:03:35.144Z,22.23
2018-07-20T03:04:35.168Z,22.26
2018-07-20T03:05:35.192Z,22.30
2018-07-20T03:06:35.216Z,22.31
2018-07-20T03:07:35.238Z,22.29
2018-07-20T03:08:56.322Z,22.20
2018-07-20T03:09:35.291Z,22.24
2018-07-20T03:10:35.315Z,22.21
2018-07-20T03:11:35.338Z,22.19
2018-07-20T03:12:35.361Z,22.17
2018-07-20T03:13:35.385Z,22.24
2018-07-20T03:14:56.428Z,22.15
2018-07-20T03:15:35.433Z,22.14
2018-07-20T03:16:35.460Z,22.19
2018-07-20T03:17:35.485Z,22.21
2018-07-20T03:18:35.507Z,22.15
2018-07-20T03:19:35.530Z,22.20
2018-07-20T03:20:56.621Z,22.21
2018-07-20T03:21:35.581Z,22.15
2018-07-20T03:22:35.602Z,22.15
2018-07-20T03:23:35.625Z,22.12
2018-07-20T03:24:35.651Z,22.15
2018-07-20T03:25:35.677Z,22.06
2018-07-20T03:26:56.716Z,22.08
2018-07-20T03:27:35.723Z,22.06
2018-07-20T03:28:35.749Z,22.09
2018-07-20T03:29:35.770Z,22.05
2018-07-20T03:30:35.818Z,22.06
2018-07-20T03:31:35.820Z,22.05
2018-07-20T03:32:56.951Z,22.08
2018-07-20T03:33:35.867Z,22.06
2018-07-20T03:34:35.891Z,22.06
2018-07-20T03:35:35.915Z,22.04
2018-07-20T03:36:35.945Z,22.08
2018-07-20T03:37:35.966Z,22.08
2018-07-20T03:38:57.006Z,22.05
2018-07-20T03:39:36.016Z,22.05
2018-07-20T03:40:36.034Z,22.06
2018-07-20T03:41:36.059Z,22.02
2018-07-20T03:42:36.083Z,22.05
2018-07-20T03:43:36.106Z,22.01
2018-07-20T03:44:57.151Z,22.06
2018-07-20T03:45:36.157Z,22.05
2018-07-20T03:46:36.241Z,22.04
2018-07-20T03:47:36.209Z,21.99
2018-07-20T03:48:36.229Z,22.02
2018-07-20T03:49:36.253Z,21.99
2018-07-20T03:50:57.294Z,22.05
2018-07-20T03:51:36.301Z,21.98
2018-07-20T03:52:36.324Z,21.96
2018-07-20T03:53:36.348Z,22.02
2018-07-20T03:54:36.372Z,21.98
2018-07-20T03:55:36.401Z,22.02
2018-07-20T03:56:57.439Z,21.99
2018-07-20T03:57:36.452Z,22.02
2018-07-20T03:58:36.471Z,22.01
2018-07-20T03:59:36.493Z,22.04
2018-07-20T04:00:36.524Z,22.05
2018-07-20T04:01:36.542Z,21.99
2018-07-20T04:02:57.581Z,22.04
2018-07-20T04:03:36.589Z,21.98
2018-07-20T04:04:36.612Z,22.01
2018-07-20T04:05:36.636Z,22.02
2018-07-20T04:06:36.661Z,21.99
2018-07-20T04:07:36.685Z,21.99
2018-07-20T04:08:57.728Z,21.98
2018-07-20T04:09:36.736Z,21.99
2018-07-20T04:10:36.759Z,21.96
2018-07-20T04:11:36.783Z,21.98
2018-07-20T04:12:36.804Z,21.98
2018-07-20T04:13:36.830Z,21.99
2018-07-20T04:14:57.870Z,22.04
2018-07-20T04:15:36.877Z,21.99
2018-07-20T04:16:36.903Z,22.04
2018-07-20T04:17:36.927Z,22.01
2018-07-20T04:18:36.954Z,21.99
2018-07-20T04:19:36.980Z,22.04
2018-07-20T04:20:58.015Z,22.04
2018-07-20T04:21:37.025Z,22.06
2018-07-20T04:22:37.054Z,22.05
2018-07-20T04:23:37.070Z,21.98
2018-07-20T04:24:37.099Z,22.02
2018-07-20T04:25:37.117Z,22.01
2018-07-20T04:26:58.157Z,22.06
2018-07-20T04:27:37.166Z,22.04
2018-07-20T04:28:37.191Z,22.11
2018-07-20T04:29:37.214Z,22.09
2018-07-20T04:30:37.242Z,22.08
2018-07-20T04:31:37.265Z,22.06
2018-07-20T04:32:58.301Z,22.09
2018-07-20T04:33:37.309Z,22.06
2018-07-20T04:34:37.333Z,22.05
2018-07-20T04:35:37.358Z,22.12
2018-07-20T04:36:37.386Z,22.08
2018-07-20T04:37:37.408Z,22.09
2018-07-20T04:38:58.445Z,22.11
2018-07-20T04:39:37.452Z,22.14
2018-07-20T04:40:37.480Z,22.12
2018-07-20T04:41:37.504Z,22.12
2018-07-20T04:42:37.528Z,22.15
2018-07-20T04:43:37.554Z,22.09
2018-07-20T04:44:58.591Z,22.02
2018-07-20T04:45:37.598Z,22.15
2018-07-20T04:46:37.624Z,22.15
2018-07-20T04:47:37.645Z,22.11
2018-07-20T04:48:37.672Z,22.20
2018-07-20T04:49:37.696Z,22.21
2018-07-20T04:50:58.737Z,22.19
2018-07-20T04:51:37.744Z,22.15
2018-07-20T04:52:37.768Z,22.20
2018-07-20T04:53:37.792Z,22.24
2018-07-20T04:54:37.816Z,22.17
2018-07-20T04:55:37.840Z,22.20
2018-07-20T04:56:58.878Z,22.15
2018-07-20T04:57:37.887Z,22.24
2018-07-20T04:58:37.912Z,22.27
2018-07-20T04:59:37.939Z,22.21
2018-07-20T05:00:37.960Z,22.29
2018-07-20T05:01:37.989Z,22.24
2018-07-20T05:02:59.025Z,22.33
2018-07-20T05:03:38.037Z,22.24
2018-07-20T05:04:38.055Z,22.29
2018-07-20T05:05:38.080Z,22.29
2018-07-20T05:06:38.104Z,22.23
2018-07-20T05:07:38.128Z,22.19
2018-07-20T05:08:59.167Z,22.23
2018-07-20T05:09:38.175Z,22.20
2018-07-20T05:10:38.200Z,22.23
2018-07-20T05:11:38.230Z,22.21
2018-07-20T05:12:38.248Z,22.29
2018-07-20T05:13:38.284Z,22.23
2018-07-20T05:14:59.315Z,22.21
2018-07-20T05:15:38.321Z,22.23
2018-07-20T05:16:38.348Z,22.35
2018-07-20T05:17:38.371Z,22.26
2018-07-20T05:18:38.392Z,22.30
2018-07-20T05:19:38.418Z,22.31
2018-07-20T05:20:59.459Z,22.36
2018-07-20T05:21:38.469Z,22.29
2018-07-20T05:22:38.492Z,22.35
2018-07-20T05:23:38.512Z,22.36
2018-07-20T05:24:38.536Z,22.31
2018-07-20T05:25:38.562Z,22.35
2018-07-20T05:26:59.608Z,22.29
2018-07-20T05:27:38.611Z,22.38
2018-07-20T05:28:38.636Z,22.36
2018-07-20T05:29:38.662Z,22.35
2018-07-20T05:30:38.686Z,22.35
2018-07-20T05:31:38.721Z,22.33
2018-07-20T05:32:59.747Z,22.36
2018-07-20T05:33:38.755Z,22.36
2018-07-20T05:34:38.780Z,22.29
2018-07-20T05:35:38.805Z,22.38
2018-07-20T05:36:38.829Z,22.33
2018-07-20T05:37:38.854Z,22.31
2018-07-20T05:38:59.908Z,22.41
2018-07-20T05:39:38.901Z,22.44
2018-07-20T05:40:38.927Z,22.41
2018-07-20T05:41:38.950Z,22.38
2018-07-20T05:42:38.981Z,22.36
2018-07-20T05:43:39.001Z,22.36
2018-07-20T05:45:00.053Z,22.42
2018-07-20T05:45:39.046Z,22.39
2018-07-20T05:46:39.071Z,22.38
2018-07-20T05:47:39.100Z,22.45
2018-07-20T05:48:39.125Z,22.41
2018-07-20T05:49:39.144Z,22.38
2018-07-20T05:51:00.185Z,22.48
2018-07-20T05:51:39.192Z,22.48
2018-07-20T05:52:39.215Z,22.46
2018-07-20T05:53:39.241Z,22.57
2018-07-20T05:54:39.268Z,22.52
2018-07-20T05:55:39.294Z,22.54
2018-07-20T05:57:00.328Z,22.54
2018-07-20T05:57:39.336Z,22.60
2018-07-20T05:58:39.361Z,22.60
2018-07-20T05:59:39.390Z,22.46
2018-07-20T06:00:39.411Z,22.52
2018-07-20T06:01:39.436Z,22.60
2018-07-20T06:03:00.479Z,22.64
2018-07-20T06:03:39.481Z,22.57
2018-07-20T06:04:39.506Z,22.57
2018-07-20T06:05:39.572Z,22.57
2018-07-20T06:06:39.557Z,22.63
2018-07-20T06:07:39.584Z,22.60
2018-07-20T06:09:00.622Z,22.61
2018-07-20T06:09:39.638Z,22.61
2018-07-20T06:10:39.655Z,22.63
2018-07-20T06:11:39.684Z,22.70
2018-07-20T06:12:39.705Z,22.67
2018-07-20T06:13:39.729Z,22.70
2018-07-20T06:15:00.768Z,22.75
2018-07-20T06:15:39.775Z,22.67
2018-07-20T06:16:39.801Z,22.76
2018-07-20T06:17:39.823Z,22.70
2018-07-20T06:18:39.845Z,22.76
2018-07-20T06:19:39.876Z,22.79
2018-07-20T06:21:00.916Z,22.82
2018-07-20T06:21:39.922Z,22.88
2018-07-20T06:22:39.969Z,22.96
2018-07-20T06:23:39.974Z,22.93
2018-07-20T06:24:39.994Z,23.00
2018-07-20T06:25:40.020Z,22.94
2018-07-20T06:27:01.060Z,23.03
2018-07-20T06:27:40.067Z,22.97
2018-07-20T06:28:40.093Z,23.06
2018-07-20T06:29:40.159Z,23.18
2018-07-20T06:30:40.143Z,23.11
2018-07-20T06:31:40.168Z,23.21
2018-07-20T06:33:01.208Z,23.23
2018-07-20T06:33:40.219Z,23.29
2018-07-20T06:34:40.240Z,23.25
2018-07-20T06:35:40.265Z,23.41
2018-07-20T06:36:40.286Z,23.44
2018-07-20T06:37:40.309Z,23.53
2018-07-20T06:39:01.359Z,23.52
2018-07-20T06:39:40.363Z,23.60
2018-07-20T06:40:40.440Z,23.57
2018-07-20T06:41:40.449Z,23.62
2018-07-20T06:42:40.449Z,23.68
2018-07-20T06:43:40.522Z,23.63
2018-07-20T06:45:01.511Z,23.77
2018-07-20T06:45:40.514Z,23.71
2018-07-20T06:46:40.538Z,23.69
2018-07-20T06:47:40.557Z,23.75
2018-07-20T06:48:40.584Z,23.75
2018-07-20T06:49:40.608Z,23.77
2018-07-20T06:51:01.650Z,23.78
2018-07-20T06:51:40.659Z,23.81
2018-07-20T06:52:40.684Z,23.79
2018-07-20T06:53:40.710Z,23.84
2018-07-20T06:54:40.734Z,23.82
2018-07-20T06:55:40.762Z,23.81
2018-07-20T06:57:01.800Z,23.89
2018-07-20T06:57:40.805Z,23.86
2018-07-20T06:58:40.834Z,23.96
2018-07-20T06:59:40.860Z,24.00
2018-07-20T07:00:40.886Z,24.09
2018-07-20T07:01:40.907Z,24.09
2018-07-20T07:03:02.006Z,24.04
2018-07-20T07:03:40.960Z,24.15
2018-07-20T07:04:40.985Z,24.24
2018-07-20T07:05:41.009Z,24.29
2018-07-20T07:06:41.035Z,24.42
2018-07-20T07:07:41.073Z,24.53
2018-07-20T07:09:02.100Z,24.51
2018-07-20T07:09:41.111Z,24.59
2018-07-20T07:10:41.134Z,24.67
2018-07-20T07:11:41.171Z,24.66
2018-07-20T07:12:41.188Z,24.86
2018-07-20T07:13:41.216Z,24.87
2018-07-20T07:15:02.263Z,24.83
2018-07-20T07:15:41.263Z,24.97
2018-07-20T07:16:41.291Z,24.98
2018-07-20T07:17:41.320Z,24.97
2018-07-20T07:18:41.351Z,24.93
2018-07-20T07:19:41.376Z,25.01
2018-07-20T07:21:02.405Z,25.05
2018-07-20T07:21:41.412Z,25.04
2018-07-20T07:22:41.449Z,25.07
2018-07-20T07:23:41.538Z,25.12
2018-07-20T07:24:41.491Z,25.05
2018-07-20T07:25:41.527Z,25.16
2018-07-20T07:27:02.562Z,25.16
2018-07-20T07:27:41.568Z,25.01
2018-07-20T07:28:41.599Z,25.01
2018-07-20T07:29:41.619Z,24.52
2018-07-20T07:30:41.645Z,24.18
2018-07-20T07:31:41.671Z,24.04
2018-07-20T07:33:02.720Z,24.18
2018-07-20T07:33:41.727Z,24.14
2018-07-20T07:34:41.759Z,24.19
2018-07-20T07:35:41.814Z,24.30
2018-07-20T07:36:41.798Z,24.16
2018-07-20T07:37:41.851Z,24.26
2018-07-20T07:39:02.868Z,24.23
2018-07-20T07:39:41.891Z,24.24
2018-07-20T07:40:41.925Z,24.29
2018-07-20T07:41:41.936Z,24.33
2018-07-20T07:42:41.957Z,24.30
2018-07-20T07:43:41.983Z,23.89
2018-07-20T07:45:03.026Z,24.06
2018-07-20T07:45:42.036Z,24.00
2018-07-20T07:46:42.059Z,24.05
2018-07-20T07:47:42.091Z,23.92
2018-07-20T07:48:42.119Z,24.11
2018-07-20T07:49:42.140Z,24.11
2018-07-20T07:51:03.180Z,24.09
2018-07-20T07:51:42.193Z,24.27
2018-07-20T07:52:42.219Z,24.19
2018-07-20T07:53:42.245Z,24.29
2018-07-20T07:54:42.298Z,24.18
2018-07-20T07:55:42.290Z,24.27
2018-07-20T07:57:03.389Z,24.14
2018-07-20T07:57:42.340Z,24.21
2018-07-20T07:58:42.376Z,24.27
2018-07-20T07:59:42.392Z,24.21
2018-07-20T08:00:42.421Z,24.24
2018-07-20T08:01:42.444Z,24.31
2018-07-20T08:03:03.501Z,24.30
2018-07-20T08:03:42.495Z,24.42
2018-07-20T08:04:42.522Z,24.46
2018-07-20T08:05:42.551Z,24.44
2018-07-20T08:06:42.574Z,24.60
2018-07-20T08:07:42.609Z,24.59
2018-07-20T08:09:03.643Z,24.68
2018-07-20T08:09:42.729Z,24.86
2018-07-20T08:10:42.677Z,24.94
2018-07-20T08:11:42.705Z,24.92
2018-07-20T08:12:42.741Z,24.99
2018-07-20T08:13:42.762Z,24.99
2018-07-20T08:15:03.800Z,25.05
2018-07-20T08:15:42.816Z,25.07
2018-07-20T08:16:42.833Z,25.17
2018-07-20T08:17:42.855Z,25.17
2018-07-20T08:18:42.895Z,25.20
2018-07-20T08:19:42.910Z,25.17
2018-07-20T08:21:03.950Z,25.09
2018-07-20T08:21:42.959Z,25.14
2018-07-20T08:22:42.992Z,25.14
2018-07-20T08:23:43.014Z,25.23
2018-07-20T08:24:43.074Z,25.20
2018-07-20T08:25:43.093Z,25.23
2018-07-20T08:27:04.109Z,25.31
2018-07-20T08:27:43.127Z,25.26
2018-07-20T08:28:43.138Z,25.36
2018-07-20T08:29:43.225Z,25.41
2018-07-20T08:30:43.234Z,25.34
2018-07-20T08:31:44.868Z,25.31
2018-07-20T08:33:04.273Z,25.35
2018-07-20T08:33:43.277Z,25.24
2018-07-20T08:34:43.330Z,25.16
2018-07-20T08:35:43.368Z,25.02
2018-07-20T08:36:44.333Z,25.01
2018-07-20T08:37:43.402Z,25.07
2018-07-20T08:39:04.450Z,24.97
2018-07-20T08:39:43.425Z,24.99
2018-07-20T08:40:43.489Z,24.98
2018-07-20T08:41:43.511Z,24.98
2018-07-20T08:42:43.546Z,24.99
2018-07-20T08:43:43.550Z,25.01
2018-07-20T08:45:04.617Z,25.02
2018-07-20T08:45:43.608Z,25.01
2018-07-20T08:46:43.646Z,24.99
2018-07-20T08:47:44.367Z,24.94
2018-07-20T08:48:43.679Z,25.04
2018-07-20T08:49:43.694Z,25.08
2018-07-20T08:51:04.767Z,25.12
2018-07-20T08:51:43.787Z,25.23
2018-07-20T08:52:43.796Z,25.20
2018-07-20T08:53:43.812Z,25.26
2018-07-20T08:54:43.817Z,25.23
2018-07-20T08:55:43.881Z,25.23
2018-07-20T08:57:05.840Z,25.14
2018-07-20T08:57:43.903Z,25.19
2018-07-20T08:58:43.960Z,25.23
2018-07-20T08:59:43.958Z,25.19
2018-07-20T09:00:43.973Z,25.31
2018-07-20T09:01:44.030Z,25.35
2018-07-20T09:03:05.074Z,25.29
2018-07-20T09:03:44.853Z,25.34
2018-07-20T09:04:44.099Z,25.31
2018-07-20T09:05:44.107Z,25.30
2018-07-20T09:06:44.180Z,25.36
2018-07-20T09:07:44.203Z,25.35
2018-07-20T09:09:05.227Z,25.35
2018-07-20T09:09:44.215Z,25.34
2018-07-20T09:10:44.242Z,25.42
2018-07-20T09:11:44.306Z,25.42
2018-07-20T09:12:44.295Z,25.35
2018-07-20T09:13:44.487Z,25.05
2018-07-20T09:15:05.359Z,24.92
2018-07-20T09:15:44.366Z,24.83
2018-07-20T09:16:44.392Z,24.89
2018-07-20T09:17:44.418Z,24.83
2018-07-20T09:18:44.446Z,24.83
2018-07-20T09:19:44.471Z,24.71
2018-07-20T09:21:05.609Z,24.75
2018-07-20T09:21:44.524Z,24.74
2018-07-20T09:22:44.551Z,24.75
2018-07-20T09:23:44.573Z,24.86
2018-07-20T09:24:44.603Z,24.83
2018-07-20T09:25:44.624Z,24.86
2018-07-20T09:27:05.667Z,24.99
2018-07-20T09:27:44.685Z,25.12
2018-07-20T09:28:44.709Z,25.19
2018-07-20T09:29:44.789Z,25.27
2018-07-20T09:30:44.757Z,25.20
2018-07-20T09:31:44.781Z,25.23
2018-07-20T09:33:05.827Z,25.26
2018-07-20T09:33:44.837Z,25.35
2018-07-20T09:34:44.860Z,25.36
2018-07-20T09:35:44.892Z,25.30
2018-07-20T09:36:44.914Z,25.36
2018-07-20T09:37:44.940Z,25.34
2018-07-20T09:39:06.016Z,25.27
2018-07-20T09:39:45.032Z,25.27
2018-07-20T09:40:45.874Z,25.22
2018-07-20T09:41:45.062Z,25.23
2018-07-20T09:42:45.129Z,25.19
2018-07-20T09:43:45.131Z,25.17
2018-07-20T09:45:06.862Z,25.27
2018-07-20T09:45:45.176Z,25.19
2018-07-20T09:46:45.193Z,25.19
2018-07-20T09:47:45.203Z,25.17
2018-07-20T09:48:45.224Z,25.23
2018-07-20T09:49:45.281Z,25.19
2018-07-20T09:51:06.321Z,25.19
2018-07-20T09:51:45.335Z,25.07
2018-07-20T09:52:45.343Z,25.08
2018-07-20T09:53:45.357Z,25.11
2018-07-20T09:54:45.386Z,25.07
2018-07-20T09:55:45.433Z,25.09
2018-07-20T09:57:06.460Z,25.04
2018-07-20T09:57:45.469Z,25.11
2018-07-20T09:58:45.492Z,24.97
2018-07-20T09:59:45.525Z,24.99
2018-07-20T10:00:45.536Z,24.97
2018-07-20T10:01:45.573Z,24.94
2018-07-20T10:03:06.611Z,24.98
2018-07-20T10:03:45.620Z,24.98
2018-07-20T10:04:45.645Z,25.02
2018-07-20T10:05:45.668Z,25.04
2018-07-20T10:06:45.697Z,24.98
2018-07-20T10:07:45.717Z,24.99
2018-07-20T10:09:06.761Z,24.98
2018-07-20T10:09:45.769Z,24.99
2018-07-20T10:10:45.796Z,24.98
2018-07-20T10:11:45.862Z,24.99
2018-07-20T10:12:46.484Z,24.94
2018-07-20T10:13:45.898Z,24.92
2018-07-20T10:15:06.946Z,24.93
2018-07-20T10:15:45.927Z,24.94
2018-07-20T10:16:45.954Z,24.93
2018-07-20T10:17:46.006Z,24.89
2018-07-20T10:18:46.038Z,24.86
2018-07-20T10:19:46.038Z,24.87
2018-07-20T10:21:07.078Z,24.84
2018-07-20T10:21:46.089Z,24.92
2018-07-20T10:22:46.139Z,24.84
2018-07-20T10:23:46.890Z,24.87
2018-07-20T10:24:46.174Z,24.84
2018-07-20T10:25:46.241Z,24.84
2018-07-20T10:27:07.263Z,24.86
2018-07-20T10:27:46.277Z,24.80
2018-07-20T10:28:48.859Z,24.70
2018-07-20T10:29:46.315Z,24.71
2018-07-20T10:30:46.375Z,24.71
2018-07-20T10:31:46.336Z,24.68
2018-07-20T10:33:07.914Z,24.67
2018-07-20T10:33:46.418Z,24.70
2018-07-20T10:34:46.416Z,24.64
2018-07-20T10:35:46.444Z,24.74
2018-07-20T10:36:46.468Z,24.80
2018-07-20T10:37:46.495Z,24.74
2018-07-20T10:39:07.540Z,24.71
2018-07-20T10:39:46.545Z,24.71
2018-07-20T10:40:46.606Z,24.75
2018-07-20T10:41:46.607Z,24.68
2018-07-20T10:42:46.624Z,24.59
2018-07-20T10:43:46.650Z,24.68
2018-07-20T10:45:07.692Z,24.59
2018-07-20T10:45:46.703Z,24.60
2018-07-20T10:46:46.727Z,24.56
2018-07-20T10:47:46.756Z,24.60
2018-07-20T10:48:46.776Z,24.56
2018-07-20T10:49:46.801Z,24.63
2018-07-20T10:51:07.846Z,24.56
2018-07-20T10:51:46.856Z,24.63
2018-07-20T10:52:46.879Z,24.60
2018-07-20T10:53:46.906Z,24.55
2018-07-20T10:54:46.932Z,24.64
2018-07-20T10:55:47.919Z,24.55
2018-07-20T10:57:08.000Z,24.55
2018-07-20T10:57:47.013Z,24.51
2018-07-20T10:58:47.034Z,24.51
2018-07-20T10:59:47.057Z,24.56
2018-07-20T11:00:47.085Z,24.52
2018-07-20T11:01:47.163Z,24.60
2018-07-20T11:03:08.153Z,24.59
2018-07-20T11:03:47.162Z,24.56
2018-07-20T11:04:47.189Z,24.60
2018-07-20T11:05:47.218Z,24.51
2018-07-20T11:06:47.244Z,24.51
2018-07-20T11:07:47.273Z,24.52
2018-07-20T11:09:08.304Z,24.55
2018-07-20T11:09:47.315Z,24.52
2018-07-20T11:10:47.339Z,24.39
2018-07-20T11:11:47.374Z,24.42
2018-07-20T11:12:47.393Z,24.42
2018-07-20T11:13:47.441Z,24.44
2018-07-20T11:15:08.470Z,24.42
2018-07-20T11:15:47.470Z,24.46
2018-07-20T11:16:47.503Z,24.44
2018-07-20T11:17:47.523Z,24.42
2018-07-20T11:18:47.548Z,24.52
2018-07-20T11:19:47.571Z,24.55
2018-07-20T11:21:08.615Z,24.56
2018-07-20T11:21:47.625Z,24.63
2018-07-20T11:22:47.650Z,24.60
2018-07-20T11:23:47.676Z,24.56
2018-07-20T11:24:47.703Z,24.59
2018-07-20T11:25:47.729Z,24.68
2018-07-20T11:27:08.770Z,24.70
2018-07-20T11:27:47.800Z,24.71
2018-07-20T11:28:47.805Z,24.68
2018-07-20T11:29:47.829Z,24.71
2018-07-20T11:30:47.858Z,24.68
2018-07-20T11:31:47.881Z,24.71
2018-07-20T11:33:08.922Z,24.83
2018-07-20T11:33:47.930Z,24.77
2018-07-20T11:34:47.967Z,24.86
2018-07-20T11:35:47.991Z,24.92
2018-07-20T11:36:48.022Z,24.79
2018-07-20T11:37:48.045Z,24.83
2018-07-20T11:39:09.077Z,24.97
2018-07-20T11:39:48.084Z,24.93
2018-07-20T11:40:48.113Z,24.99
2018-07-20T11:41:48.186Z,24.94
2018-07-20T11:42:48.161Z,25.02
2018-07-20T11:43:48.190Z,25.02
2018-07-20T11:45:09.233Z,24.99
2018-07-20T11:45:48.241Z,25.07
2018-07-20T11:46:48.273Z,25.08
2018-07-20T11:47:48.297Z,25.08
2018-07-20T11:48:48.315Z,25.08
2018-07-20T11:49:48.345Z,25.14
2018-07-20T11:51:09.390Z,25.16
2018-07-20T11:51:48.394Z,25.17
2018-07-20T11:52:48.420Z,25.05
2018-07-20T11:53:48.448Z,25.11
2018-07-20T11:54:48.473Z,25.19
2018-07-20T11:55:48.497Z,25.20
2018-07-20T11:57:09.538Z,25.31
2018-07-20T11:57:48.562Z,25.39
2018-07-20T11:58:48.636Z,25.35
2018-07-20T11:59:48.600Z,25.29
2018-07-20T12:00:48.628Z,25.38
2018-07-20T12:01:48.664Z,25.39
2018-07-20T12:03:09.700Z,25.41
2018-07-20T12:03:48.708Z,25.41
2018-07-20T12:04:48.767Z,25.39
2018-07-20T12:05:48.761Z,25.46
2018-07-20T12:06:48.797Z,25.44
2018-07-20T12:07:48.808Z,25.44
2018-07-20T12:09:09.853Z,25.41
2018-07-20T12:09:48.864Z,25.44
2018-07-20T12:10:48.892Z,25.42
2018-07-20T12:11:48.910Z,25.41
2018-07-20T12:12:48.946Z,25.41
2018-07-20T12:13:48.963Z,25.45
2018-07-20T12:15:10.010Z,25.49
2018-07-20T12:15:49.015Z,25.45
2018-07-20T12:16:49.045Z,25.48
2018-07-20T12:17:49.065Z,25.49
2018-07-20T12:18:49.108Z,25.45
2018-07-20T12:19:49.119Z,25.48
2018-07-20T12:21:10.182Z,25.51
2018-07-20T12:21:49.182Z,25.46
2018-07-20T12:22:49.227Z,25.46
2018-07-20T12:23:49.224Z,25.48
2018-07-20T12:24:49.251Z,25.45
2018-07-20T12:25:49.285Z,25.51
2018-07-20T12:27:10.319Z,25.57
2018-07-20T12:27:49.328Z,25.54
2018-07-20T12:28:49.357Z,25.60
2018-07-20T12:29:49.378Z,25.59
2018-07-20T12:30:49.407Z,25.67
2018-07-20T12:31:49.433Z,25.69
2018-07-20T12:33:10.480Z,25.71
2018-07-20T12:33:49.483Z,25.67
2018-07-20T12:34:49.511Z,25.69
2018-07-20T12:35:49.538Z,25.69
2018-07-20T12:36:49.566Z,25.69
2018-07-20T12:37:49.593Z,25.69
2018-07-20T12:39:10.664Z,25.71
2018-07-20T12:39:49.645Z,25.71
2018-07-20T12:40:49.680Z,25.71
2018-07-20T12:41:49.696Z,25.67
2018-07-20T12:42:49.718Z,25.74
2018-07-20T12:43:49.745Z,25.69
2018-07-20T12:45:10.799Z,25.81
2018-07-20T12:45:49.800Z,25.71
2018-07-20T12:46:49.830Z,25.78
2018-07-20T12:47:49.849Z,25.71
2018-07-20T12:48:49.878Z,25.86
2018-07-20T12:49:49.903Z,25.82
2018-07-20T12:51:10.948Z,25.83
2018-07-20T12:51:49.955Z,25.85
2018-07-20T12:52:49.981Z,25.82